This is the latest recevied weather packets stored in our database for station/object DB0TBG. If no packets are shown the sender has not sent any weather packets the latest 1 day(s).
| Time | Temp. | Humidity | Pressure | Rain* | Wind** | Luminosity | Snow |
|---|---|---|---|---|---|---|---|
| 1778095050 | 13.33° C | 80% | 963 hPa | 0 mm | 0 m/s | - | - |
| 1778094451 | 13.33° C | 80% | 963 hPa | 0 mm | 0 m/s | - | - |
| 1778093847 | 13.33° C | 81% | 963 hPa | 0 mm | 0 m/s | - | - |
| 1778091425 | 13.33° C | 75% | 962 hPa | 0 mm | 0 m/s | - | - |
| 1778090825 | 13.33° C | 74% | 962 hPa | 0 mm | 0 m/s | - | - |
| 1778087786 | 15° C | 73% | 962 hPa | 0 mm | 0 m/s | - | - |
| 1778084750 | 16.67° C | 68% | 961 hPa | 0 mm | 0 m/s | - | - |
| 1778082944 | 17.22° C | 64% | 961 hPa | 0 mm | 0 m/s | - | - |
| 1778082345 | 17.78° C | 57% | 961 hPa | 0 mm | 0 m/s | - | - |
| 1778081134 | 18.33° C | 54% | 961 hPa | 0 mm | 0 m/s | - | - |
| 1778078119 | 18.33° C | 50% | 962 hPa | 0 mm | 0 m/s | - | - |
| 1778076917 | 18.33° C | 52% | 962 hPa | 0 mm | 0 m/s | - | - |
| 1778076318 | 18.33° C | 52% | 962 hPa | 0 mm | 0 m/s | - | - |
| 1778073272 | 18.33° C | 50% | 962 hPa | 0 mm | 0 m/s | - | - |
| 1778067849 | 21.11° C | 46% | 962 hPa | 0 mm | 0 m/s | - | - |
| 1778066647 | 22.22° C | 48% | 962 hPa | 0 mm | 0 m/s | - | - |
| 1778060029 | 16.67° C | 82% | 962 hPa | 0 mm | 0 m/s | - | - |
| 1778055823 | 15.56° C | 89% | 962 hPa | 0 mm | 0 m/s | - | - |
| 1778055222 | 15.56° C | 89% | 962 hPa | 0 mm | 0 m/s | - | - |
| 1778054020 | 15.56° C | 90% | 962 hPa | 0 mm | 0 m/s | - | - |
| 1778052209 | 14.44° C | 90% | 962 hPa | 0 mm | 0 m/s | - | - |
| 1778046760 | 12.78° C | 91% | 962 hPa | 0 mm | 0 m/s | - | - |
| 1778045562 | 12.78° C | 91% | 962 hPa | 0 mm | 0 m/s | - | - |
| 1778044955 | 12.78° C | 91% | 962 hPa | 0 mm | 0 m/s | - | - |
| 1778044356 | 12.22° C | 91% | 962 hPa | 0 mm | 0 m/s | - | - |
* Rain latest hour (hover to see other rain measurements)
** Current wind speed in m/s (hover to see current wind gust speed)